sensor_id;sensor_type;location;lat;lon;timestamp;temperature;humidity
46438;DHT22;32137;48.728;9.142;2023-04-15T00:00:25;7.70;1.00
46438;DHT22;32137;48.728;9.142;2023-04-15T00:02:51;7.70;1.00
46438;DHT22;32137;48.728;9.142;2023-04-15T00:05:17;7.70;1.00
46438;DHT22;32137;48.728;9.142;2023-04-15T00:07:43;7.70;1.00
46438;DHT22;32137;48.728;9.142;2023-04-15T00:10:10;7.60;1.00
46438;DHT22;32137;48.728;9.142;2023-04-15T00:12:35;7.60;1.00
46438;DHT22;32137;48.728;9.142;2023-04-15T00:15:01;7.50;1.00
46438;DHT22;32137;48.728;9.142;2023-04-15T00:17:26;7.50;1.00
46438;DHT22;32137;48.728;9.142;2023-04-15T00:19:52;7.40;1.00
46438;DHT22;32137;48.728;9.142;2023-04-15T00:22:18;7.40;1.00
46438;DHT22;32137;48.728;9.142;2023-04-15T00:24:44;7.50;1.00
46438;DHT22;32137;48.728;9.142;2023-04-15T00:27:10;7.40;1.00
46438;DHT22;32137;48.728;9.142;2023-04-15T00:29:35;7.40;1.00
46438;DHT22;32137;48.728;9.142;2023-04-15T00:32:01;7.30;1.00
46438;DHT22;32137;48.728;9.142;2023-04-15T00:34:27;7.30;1.00
46438;DHT22;32137;48.728;9.142;2023-04-15T00:36:53;7.30;1.00
46438;DHT22;32137;48.728;9.142;2023-04-15T00:39:19;7.30;1.00
46438;DHT22;32137;48.728;9.142;2023-04-15T00:41:45;7.40;1.00
46438;DHT22;32137;48.728;9.142;2023-04-15T00:44:11;7.30;1.00
46438;DHT22;32137;48.728;9.142;2023-04-15T00:46:37;7.40;1.00
46438;DHT22;32137;48.728;9.142;2023-04-15T00:49:04;7.30;1.00
46438;DHT22;32137;48.728;9.142;2023-04-15T00:51:31;7.30;1.00
46438;DHT22;32137;48.728;9.142;2023-04-15T00:53:58;7.20;1.00
46438;DHT22;32137;48.728;9.142;2023-04-15T00:56:24;7.20;1.00
46438;DHT22;32137;48.728;9.142;2023-04-15T00:58:51;7.20;1.00
46438;DHT22;32137;48.728;9.142;2023-04-15T01:01:20;7.10;1.00
46438;DHT22;32137;48.728;9.142;2023-04-15T01:03:48;7.10;1.00
46438;DHT22;32137;48.728;9.142;2023-04-15T01:06:14;6.90;1.00
46438;DHT22;32137;48.728;9.142;2023-04-15T01:08:40;6.90;1.00
46438;DHT22;32137;48.728;9.142;2023-04-15T01:11:06;6.90;1.00
46438;DHT22;32137;48.728;9.142;2023-04-15T01:13:33;6.80;1.00
46438;DHT22;32137;48.728;9.142;2023-04-15T01:15:59;6.80;1.00
46438;DHT22;32137;48.728;9.142;2023-04-15T01:18:25;6.70;1.00
46438;DHT22;32137;48.728;9.142;2023-04-15T01:20:51;6.80;1.00
46438;DHT22;32137;48.728;9.142;2023-04-15T01:23:16;6.80;1.00
46438;DHT22;32137;48.728;9.142;2023-04-15T01:25:43;6.80;1.00
46438;DHT22;32137;48.728;9.142;2023-04-15T01:28:09;6.70;1.00
46438;DHT22;32137;48.728;9.142;2023-04-15T01:30:35;6.70;1.00
46438;DHT22;32137;48.728;9.142;2023-04-15T01:33:00;6.60;1.00
46438;DHT22;32137;48.728;9.142;2023-04-15T01:35:26;6.50;1.00
46438;DHT22;32137;48.728;9.142;2023-04-15T01:37:53;6.40;9.00
46438;DHT22;32137;48.728;9.142;2023-04-15T01:40:21;6.40;1.00
46438;DHT22;32137;48.728;9.142;2023-04-15T01:42:47;6.50;2.60
46438;DHT22;32137;48.728;9.142;2023-04-15T01:45:12;6.50;1.00
46438;DHT22;32137;48.728;9.142;2023-04-15T01:47:38;6.40;1.00
46438;DHT22;32137;48.728;9.142;2023-04-15T01:50:04;6.40;12.20
46438;DHT22;32137;48.728;9.142;2023-04-15T01:52:31;6.30;15.80
46438;DHT22;32137;48.728;9.142;2023-04-15T01:54:56;6.30;13.70
46438;DHT22;32137;48.728;9.142;2023-04-15T01:57:22;6.30;8.40
46438;DHT22;32137;48.728;9.142;2023-04-15T01:59:47;6.30;13.50
46438;DHT22;32137;48.728;9.142;2023-04-15T02:02:13;6.20;26.00
46438;DHT22;32137;48.728;9.142;2023-04-15T02:04:39;6.20;1.00
46438;DHT22;32137;48.728;9.142;2023-04-15T02:07:05;6.20;9.70
46438;DHT22;32137;48.728;9.142;2023-04-15T02:09:31;6.20;16.10
46438;DHT22;32137;48.728;9.142;2023-04-15T02:11:57;6.10;31.90
46438;DHT22;32137;48.728;9.142;2023-04-15T02:14:22;6.10;26.20
46438;DHT22;32137;48.728;9.142;2023-04-15T02:16:48;6.10;21.70
46438;DHT22;32137;48.728;9.142;2023-04-15T02:19:13;6.10;24.20
46438;DHT22;32137;48.728;9.142;2023-04-15T02:21:39;6.10;13.10
46438;DHT22;32137;48.728;9.142;2023-04-15T02:24:05;6.10;25.30
46438;DHT22;32137;48.728;9.142;2023-04-15T02:26:31;6.10;12.90
46438;DHT22;32137;48.728;9.142;2023-04-15T02:29:00;6.10;15.00
46438;DHT22;32137;48.728;9.142;2023-04-15T02:31:25;6.00;24.90
46438;DHT22;32137;48.728;9.142;2023-04-15T02:33:51;6.00;44.40
46438;DHT22;32137;48.728;9.142;2023-04-15T02:36:16;6.00;28.00
46438;DHT22;32137;48.728;9.142;2023-04-15T02:38:42;5.90;56.40
46438;DHT22;32137;48.728;9.142;2023-04-15T02:41:10;5.80;79.60
46438;DHT22;32137;48.728;9.142;2023-04-15T02:43:36;5.80;87.90
46438;DHT22;32137;48.728;9.142;2023-04-15T02:46:04;5.80;52.80
46438;DHT22;32137;48.728;9.142;2023-04-15T02:48:30;5.70;61.60
46438;DHT22;32137;48.728;9.142;2023-04-15T02:51:11;5.70;73.50
46438;DHT22;32137;48.728;9.142;2023-04-15T02:53:36;5.60;91.30
46438;DHT22;32137;48.728;9.142;2023-04-15T02:56:02;5.60;95.30
46438;DHT22;32137;48.728;9.142;2023-04-15T02:58:27;5.70;95.90
46438;DHT22;32137;48.728;9.142;2023-04-15T03:00:53;5.70;77.80
46438;DHT22;32137;48.728;9.142;2023-04-15T03:03:18;5.70;77.10
46438;DHT22;32137;48.728;9.142;2023-04-15T03:05:44;5.80;83.90
46438;DHT22;32137;48.728;9.142;2023-04-15T03:08:10;5.70;65.50
46438;DHT22;32137;48.728;9.142;2023-04-15T03:10:35;5.60;94.70
46438;DHT22;32137;48.728;9.142;2023-04-15T03:13:01;5.60;93.30
46438;DHT22;32137;48.728;9.142;2023-04-15T03:15:26;5.50;91.40
46438;DHT22;32137;48.728;9.142;2023-04-15T03:17:52;5.50;99.50
46438;DHT22;32137;48.728;9.142;2023-04-15T03:20:18;5.50;99.90
46438;DHT22;32137;48.728;9.142;2023-04-15T03:22:43;5.50;99.90
46438;DHT22;32137;48.728;9.142;2023-04-15T03:25:09;5.50;91.10
46438;DHT22;32137;48.728;9.142;2023-04-15T03:27:35;5.40;99.90
46438;DHT22;32137;48.728;9.142;2023-04-15T03:30:00;5.40;99.90
46438;DHT22;32137;48.728;9.142;2023-04-15T03:32:26;5.40;99.90
46438;DHT22;32137;48.728;9.142;2023-04-15T03:34:51;5.40;99.90
46438;DHT22;32137;48.728;9.142;2023-04-15T03:37:17;5.40;99.90
46438;DHT22;32137;48.728;9.142;2023-04-15T03:39:42;5.30;99.90
46438;DHT22;32137;48.728;9.142;2023-04-15T03:42:08;5.20;99.90
46438;DHT22;32137;48.728;9.142;2023-04-15T03:44:33;5.10;99.90
46438;DHT22;32137;48.728;9.142;2023-04-15T03:46:59;5.20;99.90
46438;DHT22;32137;48.728;9.142;2023-04-15T03:49:24;5.20;99.90
46438;DHT22;32137;48.728;9.142;2023-04-15T03:51:50;5.20;99.90
46438;DHT22;32137;48.728;9.142;2023-04-15T03:54:16;5.20;99.90
46438;DHT22;32137;48.728;9.142;2023-04-15T03:56:41;5.20;93.60
46438;DHT22;32137;48.728;9.142;2023-04-15T03:59:07;5.10;99.90
46438;DHT22;32137;48.728;9.142;2023-04-15T04:01:32;5.10;99.90
46438;DHT22;32137;48.728;9.142;2023-04-15T04:03:57;5.10;99.90
46438;DHT22;32137;48.728;9.142;2023-04-15T04:06:23;5.10;99.90
46438;DHT22;32137;48.728;9.142;2023-04-15T04:08:48;5.10;99.90
46438;DHT22;32137;48.728;9.142;2023-04-15T04:11:14;5.00;99.90
46438;DHT22;32137;48.728;9.142;2023-04-15T04:13:40;5.00;99.90
46438;DHT22;32137;48.728;9.142;2023-04-15T04:16:06;5.10;83.00
46438;DHT22;32137;48.728;9.142;2023-04-15T04:18:32;5.10;52.90
46438;DHT22;32137;48.728;9.142;2023-04-15T04:20:58;5.10;63.50
46438;DHT22;32137;48.728;9.142;2023-04-15T04:23:24;5.00;76.00
46438;DHT22;32137;48.728;9.142;2023-04-15T04:25:50;5.00;97.40
46438;DHT22;32137;48.728;9.142;2023-04-15T04:28:15;5.00;99.90
46438;DHT22;32137;48.728;9.142;2023-04-15T04:30:41;5.00;94.70
46438;DHT22;32137;48.728;9.142;2023-04-15T04:33:06;5.00;71.50
46438;DHT22;32137;48.728;9.142;2023-04-15T04:35:32;5.00;94.80
46438;DHT22;32137;48.728;9.142;2023-04-15T04:37:59;4.90;98.50
46438;DHT22;32137;48.728;9.142;2023-04-15T04:40:25;4.90;99.90
46438;DHT22;32137;48.728;9.142;2023-04-15T04:42:53;4.90;99.90
46438;DHT22;32137;48.728;9.142;2023-04-15T04:45:19;4.90;99.90
46438;DHT22;32137;48.728;9.142;2023-04-15T04:47:45;4.90;99.90
46438;DHT22;32137;48.728;9.142;2023-04-15T04:50:13;4.80;99.40
46438;DHT22;32137;48.728;9.142;2023-04-15T04:52:39;4.80;99.90
46438;DHT22;32137;48.728;9.142;2023-04-15T04:55:05;4.80;99.90
46438;DHT22;32137;48.728;9.142;2023-04-15T04:57:30;4.90;99.90
46438;DHT22;32137;48.728;9.142;2023-04-15T04:59:56;4.90;99.90
46438;DHT22;32137;48.728;9.142;2023-04-15T05:02:22;4.90;99.90
46438;DHT22;32137;48.728;9.142;2023-04-15T05:04:47;4.90;99.90
46438;DHT22;32137;48.728;9.142;2023-04-15T05:07:14;4.90;99.90
46438;DHT22;32137;48.728;9.142;2023-04-15T05:09:40;4.90;99.90
46438;DHT22;32137;48.728;9.142;2023-04-15T05:12:06;4.80;99.90
46438;DHT22;32137;48.728;9.142;2023-04-15T05:14:33;4.80;99.90
46438;DHT22;32137;48.728;9.142;2023-04-15T05:16:58;4.90;99.90
46438;DHT22;32137;48.728;9.142;2023-04-15T05:19:24;4.80;99.90
46438;DHT22;32137;48.728;9.142;2023-04-15T05:21:49;4.70;99.90
46438;DHT22;32137;48.728;9.142;2023-04-15T05:24:15;4.70;99.90
46438;DHT22;32137;48.728;9.142;2023-04-15T05:26:41;4.70;99.90
46438;DHT22;32137;48.728;9.142;2023-04-15T05:29:06;4.70;99.90
46438;DHT22;32137;48.728;9.142;2023-04-15T05:31:32;4.70;99.90
46438;DHT22;32137;48.728;9.142;2023-04-15T05:33:58;4.70;99.90
46438;DHT22;32137;48.728;9.142;2023-04-15T05:36:23;4.70;99.90
46438;DHT22;32137;48.728;9.142;2023-04-15T05:38:49;4.70;99.90
46438;DHT22;32137;48.728;9.142;2023-04-15T05:41:14;4.70;99.90
46438;DHT22;32137;48.728;9.142;2023-04-15T05:43:40;4.60;99.90
46438;DHT22;32137;48.728;9.142;2023-04-15T05:46:06;4.70;99.90
46438;DHT22;32137;48.728;9.142;2023-04-15T05:48:32;4.60;99.90
46438;DHT22;32137;48.728;9.142;2023-04-15T05:50:58;4.70;99.90
46438;DHT22;32137;48.728;9.142;2023-04-15T05:53:24;4.70;99.90
46438;DHT22;32137;48.728;9.142;2023-04-15T05:55:50;4.70;99.90
46438;DHT22;32137;48.728;9.142;2023-04-15T05:58:15;4.70;99.90
46438;DHT22;32137;48.728;9.142;2023-04-15T06:00:41;4.70;99.90
46438;DHT22;32137;48.728;9.142;2023-04-15T06:03:08;4.80;99.90
46438;DHT22;32137;48.728;9.142;2023-04-15T06:05:33;4.90;99.90
46438;DHT22;32137;48.728;9.142;2023-04-15T06:07:59;4.90;99.90
46438;DHT22;32137;48.728;9.142;2023-04-15T06:10:24;5.00;99.90
46438;DHT22;32137;48.728;9.142;2023-04-15T06:12:51;5.10;99.90
46438;DHT22;32137;48.728;9.142;2023-04-15T06:15:17;5.20;99.90
46438;DHT22;32137;48.728;9.142;2023-04-15T06:17:43;5.20;99.90
46438;DHT22;32137;48.728;9.142;2023-04-15T06:20:08;5.30;99.90
46438;DHT22;32137;48.728;9.142;2023-04-15T06:22:36;5.40;99.90
46438;DHT22;32137;48.728;9.142;2023-04-15T06:25:02;5.40;99.90
46438;DHT22;32137;48.728;9.142;2023-04-15T06:27:27;5.50;99.90
46438;DHT22;32137;48.728;9.142;2023-04-15T06:29:53;5.60;99.90
46438;DHT22;32137;48.728;9.142;2023-04-15T06:32:19;5.70;99.90
46438;DHT22;32137;48.728;9.142;2023-04-15T06:34:44;5.70;99.90
46438;DHT22;32137;48.728;9.142;2023-04-15T06:37:10;5.90;99.90
46438;DHT22;32137;48.728;9.142;2023-04-15T06:39:40;5.90;99.90
46438;DHT22;32137;48.728;9.142;2023-04-15T06:42:06;6.00;99.90
46438;DHT22;32137;48.728;9.142;2023-04-15T06:44:31;6.10;99.90
46438;DHT22;32137;48.728;9.142;2023-04-15T06:46:57;6.20;99.90
46438;DHT22;32137;48.728;9.142;2023-04-15T06:49:22;6.30;99.90
46438;DHT22;32137;48.728;9.142;2023-04-15T06:51:48;6.40;99.90
46438;DHT22;32137;48.728;9.142;2023-04-15T06:54:13;6.50;99.90
46438;DHT22;32137;48.728;9.142;2023-04-15T06:56:39;6.60;94.10
46438;DHT22;32137;48.728;9.142;2023-04-15T06:59:06;6.70;89.90
46438;DHT22;32137;48.728;9.142;2023-04-15T07:01:33;6.80;56.80
46438;DHT22;32137;48.728;9.142;2023-04-15T07:03:58;6.80;57.40
46438;DHT22;32137;48.728;9.142;2023-04-15T07:06:24;6.90;70.20
46438;DHT22;32137;48.728;9.142;2023-04-15T07:08:50;6.90;90.00
46438;DHT22;32137;48.728;9.142;2023-04-15T07:11:15;7.00;99.20
46438;DHT22;32137;48.728;9.142;2023-04-15T07:13:41;7.00;89.40
46438;DHT22;32137;48.728;9.142;2023-04-15T07:16:07;7.10;90.00
46438;DHT22;32137;48.728;9.142;2023-04-15T07:18:33;7.10;72.80
46438;DHT22;32137;48.728;9.142;2023-04-15T07:20:59;7.10;93.30
46438;DHT22;32137;48.728;9.142;2023-04-15T07:23:24;7.10;80.30
46438;DHT22;32137;48.728;9.142;2023-04-15T07:25:50;7.20;44.60
46438;DHT22;32137;48.728;9.142;2023-04-15T07:28:16;7.30;28.00
46438;DHT22;32137;48.728;9.142;2023-04-15T07:30:42;7.30;32.60
46438;DHT22;32137;48.728;9.142;2023-04-15T07:33:07;7.40;25.80
46438;DHT22;32137;48.728;9.142;2023-04-15T07:35:33;7.40;25.10
46438;DHT22;32137;48.728;9.142;2023-04-15T07:37:58;7.50;25.90
46438;DHT22;32137;48.728;9.142;2023-04-15T07:40:24;7.60;1.00
46438;DHT22;32137;48.728;9.142;2023-04-15T07:42:50;7.70;1.00
46438;DHT22;32137;48.728;9.142;2023-04-15T07:45:15;7.90;1.00
46438;DHT22;32137;48.728;9.142;2023-04-15T07:47:41;8.00;1.00
46438;DHT22;32137;48.728;9.142;2023-04-15T07:50:08;8.10;1.00
46438;DHT22;32137;48.728;9.142;2023-04-15T07:52:34;8.20;1.00
46438;DHT22;32137;48.728;9.142;2023-04-15T07:55:05;8.40;1.00
46438;DHT22;32137;48.728;9.142;2023-04-15T07:57:31;8.50;99.90
46438;DHT22;32137;48.728;9.142;2023-04-15T07:59:57;8.50;99.90
46438;DHT22;32137;48.728;9.142;2023-04-15T08:02:22;8.50;99.90
46438;DHT22;32137;48.728;9.142;2023-04-15T08:04:48;8.40;1.00
46438;DHT22;32137;48.728;9.142;2023-04-15T08:07:13;8.30;99.90
46438;DHT22;32137;48.728;9.142;2023-04-15T08:09:39;8.30;1.00
46438;DHT22;32137;48.728;9.142;2023-04-15T08:12:04;8.20;1.00
46438;DHT22;32137;48.728;9.142;2023-04-15T08:14:30;8.20;1.00
46438;DHT22;32137;48.728;9.142;2023-04-15T08:16:56;8.30;1.00
46438;DHT22;32137;48.728;9.142;2023-04-15T08:19:21;8.30;1.00
46438;DHT22;32137;48.728;9.142;2023-04-15T08:21:47;8.40;1.00
46438;DHT22;32137;48.728;9.142;2023-04-15T08:24:12;8.50;1.00
46438;DHT22;32137;48.728;9.142;2023-04-15T08:26:38;8.70;99.90
46438;DHT22;32137;48.728;9.142;2023-04-15T08:29:04;8.80;99.90
46438;DHT22;32137;48.728;9.142;2023-04-15T08:31:29;9.10;99.90
46438;DHT22;32137;48.728;9.142;2023-04-15T08:33:56;9.30;99.90
46438;DHT22;32137;48.728;9.142;2023-04-15T08:36:22;9.40;99.90
46438;DHT22;32137;48.728;9.142;2023-04-15T08:38:47;9.60;99.90
46438;DHT22;32137;48.728;9.142;2023-04-15T08:41:25;9.70;99.90
46438;DHT22;32137;48.728;9.142;2023-04-15T08:43:53;9.80;99.90
46438;DHT22;32137;48.728;9.142;2023-04-15T08:46:21;9.90;99.90
46438;DHT22;32137;48.728;9.142;2023-04-15T08:48:47;9.90;99.90
46438;DHT22;32137;48.728;9.142;2023-04-15T08:51:14;10.00;99.90
46438;DHT22;32137;48.728;9.142;2023-04-15T08:53:42;10.10;99.90
46438;DHT22;32137;48.728;9.142;2023-04-15T08:56:08;10.30;44.30
46438;DHT22;32137;48.728;9.142;2023-04-15T08:58:36;10.40;71.80
46438;DHT22;32137;48.728;9.142;2023-04-15T09:01:02;10.50;4.10
46438;DHT22;32137;48.728;9.142;2023-04-15T09:03:28;10.60;1.00
46438;DHT22;32137;48.728;9.142;2023-04-15T09:05:54;10.60;1.00
46438;DHT22;32137;48.728;9.142;2023-04-15T09:08:20;10.70;1.00
46438;DHT22;32137;48.728;9.142;2023-04-15T09:10:46;10.80;1.00
46438;DHT22;32137;48.728;9.142;2023-04-15T09:13:12;10.90;1.00
46438;DHT22;32137;48.728;9.142;2023-04-15T09:15:37;11.00;1.00
46438;DHT22;32137;48.728;9.142;2023-04-15T09:18:03;11.10;1.00
46438;DHT22;32137;48.728;9.142;2023-04-15T09:20:30;11.20;1.00
46438;DHT22;32137;48.728;9.142;2023-04-15T09:23:11;11.20;1.00
46438;DHT22;32137;48.728;9.142;2023-04-15T09:25:39;11.40;1.00
46438;DHT22;32137;48.728;9.142;2023-04-15T09:28:07;11.60;1.00
46438;DHT22;32137;48.728;9.142;2023-04-15T09:30:32;11.70;1.00
46438;DHT22;32137;48.728;9.142;2023-04-15T09:33:00;11.80;1.00
46438;DHT22;32137;48.728;9.142;2023-04-15T09:35:27;11.90;1.00
46438;DHT22;32137;48.728;9.142;2023-04-15T09:38:00;11.90;1.00
46438;DHT22;32137;48.728;9.142;2023-04-15T09:40:33;12.00;1.00
46438;DHT22;32137;48.728;9.142;2023-04-15T09:42:59;12.00;1.00
46438;DHT22;32137;48.728;9.142;2023-04-15T09:45:28;12.10;1.00
46438;DHT22;32137;48.728;9.142;2023-04-15T09:47:53;12.20;1.00
46438;DHT22;32137;48.728;9.142;2023-04-15T09:50:19;12.30;1.00
46438;DHT22;32137;48.728;9.142;2023-04-15T09:52:45;12.30;1.00
46438;DHT22;32137;48.728;9.142;2023-04-15T09:55:12;12.30;1.00
46438;DHT22;32137;48.728;9.142;2023-04-15T09:57:39;12.40;1.00
46438;DHT22;32137;48.728;9.142;2023-04-15T10:00:09;12.50;1.00
46438;DHT22;32137;48.728;9.142;2023-04-15T10:02:36;12.50;99.90
46438;DHT22;32137;48.728;9.142;2023-04-15T10:05:02;12.50;99.90
46438;DHT22;32137;48.728;9.142;2023-04-15T10:07:28;12.60;1.00
46438;DHT22;32137;48.728;9.142;2023-04-15T10:09:55;12.60;99.90
46438;DHT22;32137;48.728;9.142;2023-04-15T10:12:21;12.60;99.90
46438;DHT22;32137;48.728;9.142;2023-04-15T10:14:59;12.70;99.90
46438;DHT22;32137;48.728;9.142;2023-04-15T10:17:27;12.70;99.90
46438;DHT22;32137;48.728;9.142;2023-04-15T10:20:03;12.70;99.90
46438;DHT22;32137;48.728;9.142;2023-04-15T10:22:29;12.70;99.90
46438;DHT22;32137;48.728;9.142;2023-04-15T10:24:55;12.80;99.90
46438;DHT22;32137;48.728;9.142;2023-04-15T10:27:22;12.90;99.90
46438;DHT22;32137;48.728;9.142;2023-04-15T10:29:49;13.00;99.90
46438;DHT22;32137;48.728;9.142;2023-04-15T10:32:18;13.00;99.90
46438;DHT22;32137;48.728;9.142;2023-04-15T10:34:46;13.00;99.90
46438;DHT22;32137;48.728;9.142;2023-04-15T10:37:12;13.00;99.90
46438;DHT22;32137;48.728;9.142;2023-04-15T10:39:38;13.00;99.90
46438;DHT22;32137;48.728;9.142;2023-04-15T10:44:38;13.00;1.00
46438;DHT22;32137;48.728;9.142;2023-04-15T10:47:15;13.10;99.90
46438;DHT22;32137;48.728;9.142;2023-04-15T10:49:49;13.20;99.90
46438;DHT22;32137;48.728;9.142;2023-04-15T10:52:23;13.30;99.90
46438;DHT22;32137;48.728;9.142;2023-04-15T10:54:49;13.30;99.90
46438;DHT22;32137;48.728;9.142;2023-04-15T10:57:22;13.40;99.90
46438;DHT22;32137;48.728;9.142;2023-04-15T11:02:47;13.50;99.90
46438;DHT22;32137;48.728;9.142;2023-04-15T11:05:14;13.50;99.90
46438;DHT22;32137;48.728;9.142;2023-04-15T11:12:52;13.40;99.90
46438;DHT22;32137;48.728;9.142;2023-04-15T11:18:24;13.20;99.90
46438;DHT22;32137;48.728;9.142;2023-04-15T11:20:58;13.10;99.90
46438;DHT22;32137;48.728;9.142;2023-04-15T11:23:35;13.00;1.00
46438;DHT22;32137;48.728;9.142;2023-04-15T11:26:03;13.00;1.00
46438;DHT22;32137;48.728;9.142;2023-04-15T11:28:31;13.00;1.00
46438;DHT22;32137;48.728;9.142;2023-04-15T11:31:02;13.20;1.00
46438;DHT22;32137;48.728;9.142;2023-04-15T11:33:30;13.50;1.00
46438;DHT22;32137;48.728;9.142;2023-04-15T11:35:55;14.30;99.90
46438;DHT22;32137;48.728;9.142;2023-04-15T11:38:21;16.40;99.90
46438;DHT22;32137;48.728;9.142;2023-04-15T11:40:47;18.20;99.90
46438;DHT22;32137;48.728;9.142;2023-04-15T11:43:19;19.00;99.90
46438;DHT22;32137;48.728;9.142;2023-04-15T11:45:53;18.30;99.90
46438;DHT22;32137;48.728;9.142;2023-04-15T11:48:25;17.20;99.90
46438;DHT22;32137;48.728;9.142;2023-04-15T11:50:56;16.30;99.90
46438;DHT22;32137;48.728;9.142;2023-04-15T11:53:22;15.50;99.90
46438;DHT22;32137;48.728;9.142;2023-04-15T11:55:50;15.70;99.90
46438;DHT22;32137;48.728;9.142;2023-04-15T12:00:48;16.90;99.90
46438;DHT22;32137;48.728;9.142;2023-04-15T12:03:21;16.70;99.90
46438;DHT22;32137;48.728;9.142;2023-04-15T12:13:56;15.90;99.90
46438;DHT22;32137;48.728;9.142;2023-04-15T12:16:23;15.70;99.90
46438;DHT22;32137;48.728;9.142;2023-04-15T12:18:54;17.00;99.90
46438;DHT22;32137;48.728;9.142;2023-04-15T12:21:22;18.80;99.90
46438;DHT22;32137;48.728;9.142;2023-04-15T12:23:55;20.10;99.90
46438;DHT22;32137;48.728;9.142;2023-04-15T12:26:28;20.90;99.90
46438;DHT22;32137;48.728;9.142;2023-04-15T12:29:15;20.00;99.90
46438;DHT22;32137;48.728;9.142;2023-04-15T12:34:14;19.40;99.90
46438;DHT22;32137;48.728;9.142;2023-04-15T12:36:40;19.50;99.90
46438;DHT22;32137;48.728;9.142;2023-04-15T12:39:08;19.90;99.90
46438;DHT22;32137;48.728;9.142;2023-04-15T12:41:34;21.10;99.90
46438;DHT22;32137;48.728;9.142;2023-04-15T12:43:59;21.60;99.90
46438;DHT22;32137;48.728;9.142;2023-04-15T12:46:25;21.80;99.90
46438;DHT22;32137;48.728;9.142;2023-04-15T12:48:51;21.50;99.90
46438;DHT22;32137;48.728;9.142;2023-04-15T12:51:18;20.80;99.90
46438;DHT22;32137;48.728;9.142;2023-04-15T12:53:43;19.80;99.90
46438;DHT22;32137;48.728;9.142;2023-04-15T12:56:09;19.00;99.90
46438;DHT22;32137;48.728;9.142;2023-04-15T12:58:34;18.40;99.90
46438;DHT22;32137;48.728;9.142;2023-04-15T13:01:00;17.50;99.90
46438;DHT22;32137;48.728;9.142;2023-04-15T13:03:26;16.80;99.90
46438;DHT22;32137;48.728;9.142;2023-04-15T13:05:51;16.30;99.90
46438;DHT22;32137;48.728;9.142;2023-04-15T13:08:17;16.00;99.90
46438;DHT22;32137;48.728;9.142;2023-04-15T13:10:43;15.70;99.90
46438;DHT22;32137;48.728;9.142;2023-04-15T13:13:08;15.50;99.90
46438;DHT22;32137;48.728;9.142;2023-04-15T13:15:34;15.20;99.90
46438;DHT22;32137;48.728;9.142;2023-04-15T13:18:00;15.10;99.90
46438;DHT22;32137;48.728;9.142;2023-04-15T13:20:26;14.90;99.90
46438;DHT22;32137;48.728;9.142;2023-04-15T13:22:52;14.70;99.90
46438;DHT22;32137;48.728;9.142;2023-04-15T13:25:18;14.70;99.90
46438;DHT22;32137;48.728;9.142;2023-04-15T13:27:44;14.50;99.90
46438;DHT22;32137;48.728;9.142;2023-04-15T13:30:09;14.50;99.90
46438;DHT22;32137;48.728;9.142;2023-04-15T13:32:35;14.40;99.90
46438;DHT22;32137;48.728;9.142;2023-04-15T13:35:01;14.30;99.90
46438;DHT22;32137;48.728;9.142;2023-04-15T13:37:27;14.30;99.90
46438;DHT22;32137;48.728;9.142;2023-04-15T13:39:53;14.20;99.90
46438;DHT22;32137;48.728;9.142;2023-04-15T13:42:19;14.20;99.90
46438;DHT22;32137;48.728;9.142;2023-04-15T13:44:45;14.10;99.90
46438;DHT22;32137;48.728;9.142;2023-04-15T13:47:10;14.00;99.90
46438;DHT22;32137;48.728;9.142;2023-04-15T13:49:37;13.90;99.90
46438;DHT22;32137;48.728;9.142;2023-04-15T13:52:02;13.90;99.90
46438;DHT22;32137;48.728;9.142;2023-04-15T13:54:28;13.90;99.90
46438;DHT22;32137;48.728;9.142;2023-04-15T13:56:54;14.10;99.90
46438;DHT22;32137;48.728;9.142;2023-04-15T13:59:21;14.30;99.90
46438;DHT22;32137;48.728;9.142;2023-04-15T14:01:47;14.30;99.90
46438;DHT22;32137;48.728;9.142;2023-04-15T14:04:12;14.40;99.90
46438;DHT22;32137;48.728;9.142;2023-04-15T14:06:38;14.50;99.90
46438;DHT22;32137;48.728;9.142;2023-04-15T14:09:04;14.50;99.90
46438;DHT22;32137;48.728;9.142;2023-04-15T14:11:29;14.30;99.90
46438;DHT22;32137;48.728;9.142;2023-04-15T14:13:55;14.20;99.90
46438;DHT22;32137;48.728;9.142;2023-04-15T14:16:20;14.10;99.90
46438;DHT22;32137;48.728;9.142;2023-04-15T14:18:46;14.00;99.90
46438;DHT22;32137;48.728;9.142;2023-04-15T14:21:11;13.90;99.90
46438;DHT22;32137;48.728;9.142;2023-04-15T14:23:37;13.70;99.90
46438;DHT22;32137;48.728;9.142;2023-04-15T14:26:03;13.60;99.90
46438;DHT22;32137;48.728;9.142;2023-04-15T14:28:28;13.50;99.90
46438;DHT22;32137;48.728;9.142;2023-04-15T14:30:54;13.40;99.90
46438;DHT22;32137;48.728;9.142;2023-04-15T14:33:19;13.20;99.90
46438;DHT22;32137;48.728;9.142;2023-04-15T14:35:45;13.20;99.90
46438;DHT22;32137;48.728;9.142;2023-04-15T14:38:11;13.20;99.90
46438;DHT22;32137;48.728;9.142;2023-04-15T14:40:36;13.10;99.90
46438;DHT22;32137;48.728;9.142;2023-04-15T14:43:02;13.00;99.90
46438;DHT22;32137;48.728;9.142;2023-04-15T14:45:29;13.00;99.90
46438;DHT22;32137;48.728;9.142;2023-04-15T14:47:55;13.00;99.90
46438;DHT22;32137;48.728;9.142;2023-04-15T14:50:20;13.00;99.90
46438;DHT22;32137;48.728;9.142;2023-04-15T14:52:46;12.90;99.90
46438;DHT22;32137;48.728;9.142;2023-04-15T14:55:12;12.90;99.90
46438;DHT22;32137;48.728;9.142;2023-04-15T14:57:39;12.80;99.90
46438;DHT22;32137;48.728;9.142;2023-04-15T15:00:06;12.80;99.90
46438;DHT22;32137;48.728;9.142;2023-04-15T15:02:32;12.70;99.90
46438;DHT22;32137;48.728;9.142;2023-04-15T15:04:59;12.50;99.90
46438;DHT22;32137;48.728;9.142;2023-04-15T15:07:25;12.40;99.90
46438;DHT22;32137;48.728;9.142;2023-04-15T15:09:50;12.40;99.90
46438;DHT22;32137;48.728;9.142;2023-04-15T15:12:16;12.30;99.90
46438;DHT22;32137;48.728;9.142;2023-04-15T15:14:41;12.20;99.90
46438;DHT22;32137;48.728;9.142;2023-04-15T15:17:08;12.20;99.90
46438;DHT22;32137;48.728;9.142;2023-04-15T15:19:33;12.10;99.90
46438;DHT22;32137;48.728;9.142;2023-04-15T15:21:59;12.00;99.90
46438;DHT22;32137;48.728;9.142;2023-04-15T15:24:24;11.90;99.90
46438;DHT22;32137;48.728;9.142;2023-04-15T15:26:50;11.80;99.90
46438;DHT22;32137;48.728;9.142;2023-04-15T15:29:16;11.80;99.90
46438;DHT22;32137;48.728;9.142;2023-04-15T15:31:41;11.80;99.90
46438;DHT22;32137;48.728;9.142;2023-04-15T15:34:07;11.70;99.90
46438;DHT22;32137;48.728;9.142;2023-04-15T15:36:32;11.70;99.90
46438;DHT22;32137;48.728;9.142;2023-04-15T15:38:58;11.70;99.90
46438;DHT22;32137;48.728;9.142;2023-04-15T15:41:24;11.60;1.00
46438;DHT22;32137;48.728;9.142;2023-04-15T15:43:52;11.50;99.90
46438;DHT22;32137;48.728;9.142;2023-04-15T15:46:18;11.50;99.90
46438;DHT22;32137;48.728;9.142;2023-04-15T15:48:43;11.50;25.40
46438;DHT22;32137;48.728;9.142;2023-04-15T15:51:09;11.50;27.20
46438;DHT22;32137;48.728;9.142;2023-04-15T15:53:34;11.50;8.90
46438;DHT22;32137;48.728;9.142;2023-04-15T15:56:00;11.50;4.90
46438;DHT22;32137;48.728;9.142;2023-04-15T15:58:28;11.50;1.00
46438;DHT22;32137;48.728;9.142;2023-04-15T16:00:54;11.50;1.00
46438;DHT22;32137;48.728;9.142;2023-04-15T16:03:19;11.50;1.00